createdAt,value
2017-05-09T07:11:33.183Z,29.21
2017-05-09T07:12:34.611Z,29.79
2017-05-09T07:13:36.053Z,30.46
2017-05-09T07:14:37.488Z,30.08
2017-05-09T07:15:38.925Z,30.27
2017-05-09T07:16:40.370Z,30.08
2017-05-09T07:17:41.801Z,29.89
2017-05-09T07:18:43.236Z,29.98
2017-05-09T07:19:44.668Z,29.98
2017-05-09T07:20:46.102Z,30.56
2017-05-09T07:21:48.194Z,29.69
2017-05-09T07:22:49.649Z,29.60
2017-05-09T07:23:51.078Z,29.03
2017-05-09T07:24:52.516Z,28.55
2017-05-09T07:25:53.949Z,28.84
2017-05-09T07:26:55.401Z,28.45
2017-05-09T07:27:56.825Z,28.16
2017-05-09T07:28:58.322Z,28.07
2017-05-09T07:29:59.818Z,28.45
2017-05-09T07:31:01.247Z,27.78
2017-05-09T07:32:02.742Z,27.31
2017-05-09T07:33:04.230Z,27.31
2017-05-09T07:34:05.669Z,27.89
2017-05-09T07:35:07.101Z,26.82
2017-05-09T07:36:08.539Z,26.44
2017-05-09T07:37:10.012Z,26.44
2017-05-09T07:38:11.683Z,26.54
2017-05-09T07:39:13.229Z,26.34
2017-05-09T07:40:14.668Z,26.64
2017-05-09T07:41:16.123Z,27.02
2017-05-09T07:42:17.600Z,27.33
2017-05-09T07:43:19.040Z,26.93
2017-05-09T07:44:20.699Z,26.45
2017-05-09T07:45:22.400Z,26.17
2017-05-09T07:46:24.050Z,26.17
2017-05-09T07:47:25.585Z,26.07
2017-05-09T07:48:27.348Z,25.87
2017-05-09T07:49:28.786Z,25.68
2017-05-09T07:50:30.225Z,26.35
2017-05-09T07:51:31.664Z,26.65
2017-05-09T07:52:33.099Z,25.68
2017-05-09T07:53:34.527Z,25.97
2017-05-09T07:54:35.972Z,26.08
2017-05-09T07:55:37.429Z,25.02
2017-05-09T07:56:38.936Z,25.02
2017-05-09T07:57:40.407Z,25.31
2017-05-09T07:58:41.895Z,24.74
2017-05-09T07:59:43.339Z,26.67
2017-05-09T08:00:44.787Z,26.77
2017-05-09T08:01:46.230Z,26.97
2017-05-09T08:02:47.678Z,27.35
2017-05-09T08:03:49.113Z,27.17
2017-05-09T08:04:50.643Z,26.78
2017-05-09T08:05:52.089Z,27.26
2017-05-09T08:06:53.532Z,26.98
2017-05-09T08:07:54.976Z,27.26
2017-05-09T08:08:56.455Z,27.17
2017-05-09T08:09:57.922Z,26.87
2017-05-09T08:10:59.390Z,27.56
2017-05-09T08:12:00.821Z,27.66
2017-05-09T08:13:02.315Z,27.83
2017-05-09T08:14:03.760Z,28.12
2017-05-09T08:15:05.512Z,28.52
2017-05-09T08:16:06.994Z,28.62
2017-05-09T08:17:08.476Z,28.43
2017-05-09T08:18:10.377Z,28.72
2017-05-09T08:19:12.720Z,28.33
2017-05-09T08:20:14.382Z,28.54
2017-05-09T08:21:16.378Z,28.44
2017-05-09T08:22:18.367Z,28.44
2017-05-09T08:23:20.014Z,29.02
2017-05-09T08:24:23.312Z,28.34
2017-05-09T08:25:24.645Z,28.64
2017-05-09T08:26:29.282Z,29.70
2017-05-09T08:27:31.518Z,28.64
2017-05-09T08:28:35.018Z,28.64
2017-05-09T08:29:36.412Z,28.36
2017-05-09T08:30:37.953Z,28.55
2017-05-09T08:31:39.390Z,28.55
2017-05-09T08:32:40.929Z,28.45
2017-05-09T08:33:42.525Z,29.23
2017-05-09T08:34:44.041Z,29.03
2017-05-09T08:35:45.522Z,28.85
2017-05-09T08:36:47.022Z,29.33
2017-05-09T08:37:48.759Z,28.65
2017-05-09T08:38:50.293Z,28.75
2017-05-09T08:39:51.929Z,28.55
2017-05-09T08:40:53.526Z,28.55
2017-05-09T08:41:55.063Z,28.65
2017-05-09T08:42:56.510Z,28.65
2017-05-09T08:43:58.111Z,29.13
2017-05-09T08:44:59.563Z,28.56
2017-05-09T08:46:01.003Z,29.44
2017-05-09T08:47:02.460Z,29.03
2017-05-09T08:48:03.928Z,29.34
2017-05-09T08:49:05.430Z,29.44
2017-05-09T08:50:06.979Z,29.63
2017-05-09T08:51:08.431Z,29.63
2017-05-09T08:52:09.917Z,29.53
2017-05-09T08:53:11.470Z,29.15
2017-05-09T08:54:13.041Z,29.24
2017-05-09T08:55:14.543Z,28.66
2017-05-09T08:56:16.082Z,29.15
2017-05-09T08:57:17.584Z,29.34
2017-05-09T08:58:19.010Z,29.53
2017-05-09T08:59:20.461Z,29.73
2017-05-09T09:00:21.949Z,30.02
2017-05-09T09:01:23.424Z,29.15
2017-05-09T09:02:25.078Z,27.60
2017-05-09T09:03:26.658Z,25.56
2017-05-09T09:04:28.213Z,22.47
2017-05-09T09:05:29.889Z,22.26
2017-05-09T09:06:31.478Z,21.11
2017-05-09T09:07:32.929Z,21.50
2017-05-09T09:08:34.310Z,23.14
2017-05-09T09:09:35.753Z,23.23
2017-05-09T09:10:37.206Z,23.23
2017-05-09T09:11:38.767Z,23.33
2017-05-09T09:12:40.242Z,23.33
2017-05-09T09:13:41.677Z,23.63
2017-05-09T09:14:43.115Z,24.02
2017-05-09T09:15:44.549Z,24.21
2017-05-09T09:16:46.023Z,24.49
2017-05-09T09:17:47.563Z,24.50
2017-05-09T09:18:49.025Z,24.21
2017-05-09T09:19:50.463Z,24.40
2017-05-09T09:20:51.905Z,24.78
2017-05-09T09:21:53.410Z,24.69
2017-05-09T09:22:54.929Z,25.47
2017-05-09T09:23:56.397Z,25.37
2017-05-09T09:24:58.001Z,25.55
2017-05-09T09:25:59.499Z,25.37
2017-05-09T09:27:00.949Z,25.08
2017-05-09T09:28:02.340Z,25.85
2017-05-09T09:29:03.936Z,26.25
2017-05-09T09:30:05.489Z,26.34
2017-05-09T09:31:06.929Z,26.73
2017-05-09T09:32:08.325Z,26.43
2017-05-09T09:33:09.791Z,25.56
2017-05-09T09:34:11.266Z,24.79
2017-05-09T09:35:12.713Z,25.27
2017-05-09T09:36:14.259Z,25.85
2017-05-09T09:37:15.901Z,25.76
2017-05-09T09:38:17.415Z,25.85
2017-05-09T09:39:18.844Z,25.85
2017-05-09T09:40:20.291Z,26.05
2017-05-09T09:41:21.740Z,25.95
2017-05-09T09:42:23.233Z,25.85
2017-05-09T09:43:24.744Z,25.76
2017-05-09T09:44:26.352Z,26.15
2017-05-09T09:45:27.992Z,26.05
2017-05-09T09:46:29.558Z,26.25
2017-05-09T09:47:31.001Z,26.15
2017-05-09T09:48:32.464Z,26.05
2017-05-09T09:49:34.040Z,26.15
2017-05-09T09:50:35.560Z,26.05
2017-05-09T09:51:37.148Z,26.15
2017-05-09T09:52:38.677Z,26.34
2017-05-09T09:53:40.145Z,26.34
2017-05-09T09:54:41.655Z,26.34
2017-05-09T09:55:43.233Z,26.34
2017-05-09T09:56:44.679Z,26.15
2017-05-09T09:57:46.157Z,26.34
2017-05-09T09:58:47.630Z,26.34
2017-05-09T09:59:49.074Z,23.05
2017-05-09T10:00:50.705Z,23.14
2017-05-09T10:01:52.527Z,23.33
2017-05-09T10:02:54.015Z,21.50
2017-05-09T10:03:55.464Z,19.85
2017-05-09T10:04:56.954Z,20.53
2017-05-09T10:05:58.449Z,21.69
2017-05-09T10:07:00.075Z,21.50
2017-05-09T10:08:01.696Z,20.82
2017-05-09T10:09:03.243Z,21.30
2017-05-09T10:10:04.685Z,20.53
2017-05-09T10:11:06.152Z,20.53
2017-05-09T10:12:07.558Z,18.98
2017-05-09T10:13:09.168Z,19.27
2017-05-09T10:14:10.876Z,20.53
2017-05-09T10:15:12.563Z,20.53
2017-05-09T10:16:15.319Z,20.04
2017-05-09T10:17:18.718Z,20.53
2017-05-09T10:18:20.162Z,21.01
2017-05-09T10:19:21.597Z,21.20
2017-05-09T10:20:23.098Z,20.14
2017-05-09T10:21:24.672Z,21.01
2017-05-09T10:22:26.302Z,21.69
2017-05-09T10:23:27.767Z,21.20
2017-05-09T10:24:29.288Z,20.82
2017-05-09T10:25:30.729Z,19.95
2017-05-09T10:26:32.217Z,20.82
2017-05-09T10:27:33.665Z,21.40
2017-05-09T10:28:35.088Z,21.40
2017-05-09T10:29:36.539Z,20.53
2017-05-09T10:30:38.014Z,20.92
2017-05-09T10:31:39.523Z,21.30
2017-05-09T10:32:40.961Z,20.82
2017-05-09T10:33:42.400Z,20.82
2017-05-09T10:34:43.840Z,20.92
2017-05-09T10:35:45.406Z,20.62
2017-05-09T10:36:46.910Z,20.34
2017-05-09T10:37:48.385Z,21.59
2017-05-09T10:38:49.846Z,21.98
2017-05-09T10:39:51.363Z,21.88
2017-05-09T10:40:52.805Z,21.30
2017-05-09T10:41:54.252Z,20.72
2017-05-09T10:42:55.685Z,20.82
2017-05-09T10:43:57.126Z,20.82
2017-05-09T10:44:59.159Z,18.49
2017-05-09T10:46:00.455Z,17.33
2017-05-09T10:47:01.907Z,17.62
2017-05-09T10:48:03.347Z,16.94
2017-05-09T10:49:04.824Z,17.04
2017-05-09T10:50:06.395Z,16.94
2017-05-09T10:51:07.844Z,17.62
2017-05-09T10:52:09.304Z,16.66
2017-05-09T10:53:11.016Z,16.66
2017-05-09T10:54:12.606Z,14.91
2017-05-09T10:55:14.081Z,14.72
2017-05-09T10:56:15.608Z,15.49
2017-05-09T10:57:17.194Z,16.07
2017-05-09T10:58:18.765Z,16.36
2017-05-09T10:59:20.231Z,17.62
2017-05-09T11:00:21.678Z,18.11
2017-05-09T11:01:23.136Z,18.59
2017-05-09T11:02:24.575Z,18.79
2017-05-09T11:03:26.024Z,19.07
2017-05-09T11:04:27.471Z,19.17
2017-05-09T11:05:28.912Z,19.07
2017-05-09T11:06:30.409Z,19.46
2017-05-09T11:07:31.854Z,19.56
2017-05-09T11:08:33.294Z,19.17
2017-05-09T11:09:34.740Z,19.07
2017-05-09T11:10:36.208Z,19.37
2017-05-09T11:11:37.646Z,19.46
2017-05-09T11:12:39.134Z,19.27
2017-05-09T11:13:40.583Z,19.17
2017-05-09T11:14:42.041Z,18.98
2017-05-09T11:15:43.597Z,19.17
2017-05-09T11:16:45.090Z,18.88
2017-05-09T11:17:46.571Z,18.88
2017-05-09T11:18:48.395Z,19.66
2017-05-09T11:19:50.009Z,19.95
2017-05-09T11:20:51.638Z,20.14
2017-05-09T11:21:53.076Z,20.54
2017-05-09T11:22:54.458Z,20.04
2017-05-09T11:23:55.901Z,19.95
2017-05-09T11:24:57.334Z,19.67
2017-05-09T11:25:58.771Z,19.56
2017-05-09T11:27:00.212Z,20.06
2017-05-09T11:28:01.684Z,19.47
2017-05-09T11:29:03.115Z,19.57
2017-05-09T11:30:04.549Z,19.67
2017-05-09T11:31:05.989Z,19.76
2017-05-09T11:32:07.427Z,19.67
2017-05-09T11:33:08.865Z,19.57
2017-05-09T11:34:10.371Z,19.47
2017-05-09T11:35:11.794Z,19.28
2017-05-09T11:36:13.236Z,19.18
2017-05-09T11:37:14.714Z,18.89
2017-05-09T11:38:16.178Z,18.51
2017-05-09T11:39:17.635Z,18.70
2017-05-09T11:40:19.085Z,18.70
2017-05-09T11:41:20.538Z,18.99
2017-05-09T11:42:22.137Z,18.79
2017-05-09T11:43:23.827Z,18.60
2017-05-09T11:44:25.393Z,19.18
2017-05-09T11:45:26.839Z,18.89
2017-05-09T11:46:28.393Z,19.09
2017-05-09T11:47:29.872Z,18.31
2017-05-09T11:48:31.344Z,18.21
2017-05-09T11:49:32.869Z,17.92
2017-05-09T11:50:34.340Z,17.92
2017-05-09T11:51:35.793Z,17.44
2017-05-09T11:52:37.233Z,17.63
2017-05-09T11:53:38.682Z,17.63
2017-05-09T11:54:40.140Z,17.05
2017-05-09T11:55:41.586Z,16.96
2017-05-09T11:56:43.021Z,17.44
2017-05-09T11:57:44.462Z,17.54
2017-05-09T11:58:45.932Z,17.54
2017-05-09T11:59:47.349Z,17.25
2017-05-09T12:00:48.795Z,16.96
2017-05-09T12:01:50.227Z,17.05
2017-05-09T12:02:51.660Z,17.54
2017-05-09T12:03:53.118Z,17.25
2017-05-09T12:04:54.572Z,18.13
2017-05-09T12:05:56.028Z,17.74
2017-05-09T12:06:57.492Z,17.93
2017-05-09T12:07:58.925Z,17.54
2017-05-09T12:09:00.380Z,18.12
2017-05-09T12:10:01.825Z,17.74
2017-05-09T12:11:03.269Z,18.13
2017-05-09T12:12:04.842Z,17.83
2017-05-09T12:13:06.392Z,18.51
2017-05-09T12:14:09.419Z,17.74
2017-05-09T12:15:11.025Z,18.03
